createdAt,value
2018-11-01T00:01:52.924Z,2.87
2018-11-01T00:04:26.917Z,2.70
2018-11-01T00:07:00.906Z,3.27
2018-11-01T00:09:34.864Z,2.70
2018-11-01T00:12:08.769Z,3.00
2018-11-01T00:14:42.646Z,2.87
2018-11-01T00:17:16.539Z,3.03
2018-11-01T00:19:50.502Z,2.73
2018-11-01T00:22:24.373Z,2.80
2018-11-01T00:24:58.302Z,2.60
2018-11-01T00:27:32.250Z,2.67
2018-11-01T00:30:06.597Z,3.13
2018-11-01T00:32:40.691Z,2.60
2018-11-01T00:35:14.653Z,3.10
2018-11-01T00:37:48.607Z,2.60
2018-11-01T00:40:22.573Z,2.40
2018-11-01T00:42:56.388Z,3.10
2018-11-01T00:45:30.293Z,3.03
2018-11-01T00:48:04.216Z,2.67
2018-11-01T00:50:38.152Z,2.73
2018-11-01T00:53:12.084Z,3.23
2018-11-01T00:55:45.971Z,2.90
2018-11-01T00:58:19.824Z,3.23
2018-11-01T01:00:53.696Z,2.73
2018-11-01T01:03:27.532Z,2.77
2018-11-01T01:06:01.557Z,3.50
2018-11-01T01:08:35.437Z,4.47
2018-11-01T01:11:09.291Z,3.90
2018-11-01T01:13:44.108Z,3.60
2018-11-01T01:16:18.061Z,3.30
2018-11-01T01:18:51.929Z,3.30
2018-11-01T01:21:25.916Z,4.20
2018-11-01T01:23:59.893Z,4.00
2018-11-01T01:26:33.824Z,3.80
2018-11-01T01:29:07.685Z,3.83
2018-11-01T01:31:41.701Z,3.53
2018-11-01T01:34:15.602Z,3.80
2018-11-01T01:36:50.510Z,3.63
2018-11-01T01:39:24.334Z,3.70
2018-11-01T01:41:58.191Z,3.60
2018-11-01T01:44:32.022Z,3.70
2018-11-01T01:47:05.941Z,4.30
2018-11-01T01:49:39.823Z,3.87
2018-11-01T01:52:13.692Z,4.00
2018-11-01T01:54:47.558Z,4.20
2018-11-01T01:57:21.415Z,3.20
2018-11-01T01:59:55.341Z,3.80
2018-11-01T02:02:29.225Z,3.70
2018-11-01T02:05:03.114Z,3.97
2018-11-01T02:07:37.028Z,3.83
2018-11-01T02:10:13.215Z,3.93
2018-11-01T02:12:47.092Z,3.53
2018-11-01T02:15:21.732Z,3.77
2018-11-01T02:17:55.599Z,3.63
2018-11-01T02:20:29.476Z,3.70
2018-11-01T02:23:03.348Z,3.93
2018-11-01T02:25:37.327Z,3.73
2018-11-01T02:28:16.683Z,3.90
2018-11-01T02:30:50.636Z,3.57
2018-11-01T02:33:24.686Z,3.57
2018-11-01T02:35:58.535Z,3.70
2018-11-01T02:38:32.460Z,3.40
2018-11-01T02:41:06.330Z,3.93
2018-11-01T02:43:40.326Z,3.30
2018-11-01T02:46:14.227Z,3.60
2018-11-01T02:48:48.070Z,3.40
2018-11-01T02:51:21.976Z,3.50
2018-11-01T02:53:55.829Z,3.87
2018-11-01T02:56:29.657Z,3.80
2018-11-01T02:59:03.529Z,4.10
2018-11-01T03:01:37.365Z,3.53
2018-11-01T03:04:11.396Z,3.70
2018-11-01T03:06:45.314Z,4.13
2018-11-01T03:09:19.252Z,3.80
2018-11-01T03:11:53.160Z,4.20
2018-11-01T03:14:27.010Z,3.20
2018-11-01T03:17:00.901Z,3.90
2018-11-01T03:19:35.324Z,4.00
2018-11-01T03:22:09.199Z,4.30
2018-11-01T03:24:43.064Z,3.83
2018-11-01T03:27:16.861Z,4.10
2018-11-01T03:29:50.741Z,3.63
2018-11-01T03:32:24.576Z,3.60
2018-11-01T03:34:58.513Z,3.50
2018-11-01T03:37:32.342Z,4.00
2018-11-01T03:40:07.591Z,4.60
2018-11-01T03:42:42.167Z,3.97
2018-11-01T03:45:16.110Z,3.80
2018-11-01T03:47:49.936Z,3.47
2018-11-01T03:50:24.038Z,4.23
2018-11-01T03:52:57.886Z,3.73
2018-11-01T03:55:31.751Z,3.47
2018-11-01T03:58:05.632Z,4.07
2018-11-01T04:00:39.742Z,4.43
2018-11-01T04:03:13.561Z,4.33
2018-11-01T04:05:47.452Z,3.67
2018-11-01T04:08:21.288Z,3.93
2018-11-01T04:10:55.267Z,3.83
2018-11-01T04:13:29.140Z,3.23
2018-11-01T04:16:02.967Z,3.50
2018-11-01T04:18:36.759Z,3.67
2018-11-01T04:21:10.660Z,4.03
2018-11-01T04:23:44.566Z,3.93
2018-11-01T04:26:18.511Z,4.07
2018-11-01T04:28:52.335Z,3.53
2018-11-01T04:31:26.244Z,3.53
2018-11-01T04:34:00.093Z,4.10
2018-11-01T04:36:34.020Z,3.70
2018-11-01T04:39:10.425Z,3.63
2018-11-01T04:41:44.295Z,3.63
2018-11-01T04:44:18.240Z,3.80
2018-11-01T04:46:52.157Z,3.67
2018-11-01T04:49:25.972Z,4.10
2018-11-01T04:51:59.906Z,4.20
2018-11-01T04:54:33.713Z,4.13
2018-11-01T04:57:07.603Z,3.77
2018-11-01T04:59:41.400Z,3.40
2018-11-01T05:02:15.285Z,3.53
2018-11-01T05:04:49.154Z,3.90
2018-11-01T05:07:23.001Z,3.73
2018-11-01T05:09:56.867Z,4.03
2018-11-01T05:12:30.839Z,4.80
2018-11-01T05:15:04.824Z,4.10
2018-11-01T05:17:39.046Z,3.53
2018-11-01T05:20:13.376Z,4.50
2018-11-01T05:22:47.297Z,3.97
2018-11-01T05:25:21.115Z,5.27
2018-11-01T05:27:54.975Z,4.23
2018-11-01T05:30:28.797Z,4.03
2018-11-01T05:33:02.834Z,4.07
2018-11-01T05:35:36.662Z,4.10
2018-11-01T05:38:10.533Z,3.90
2018-11-01T05:40:44.349Z,4.37
2018-11-01T05:43:23.419Z,4.37
2018-11-01T05:45:57.947Z,4.57
2018-11-01T05:48:31.801Z,4.40
2018-11-01T05:51:05.637Z,4.33
2018-11-01T05:53:39.624Z,4.43
2018-11-01T05:56:13.442Z,4.17
2018-11-01T05:58:47.363Z,4.60
2018-11-01T06:01:26.268Z,4.53
2018-11-01T06:04:00.338Z,4.00
2018-11-01T06:06:34.167Z,4.47
2018-11-01T06:09:10.365Z,4.40
2018-11-01T06:11:44.262Z,4.50
2018-11-01T06:14:18.469Z,5.90
2018-11-01T06:16:52.316Z,4.73
2018-11-01T06:19:26.181Z,4.87
2018-11-01T06:22:00.092Z,4.67
2018-11-01T06:24:33.914Z,4.50
2018-11-01T06:27:07.782Z,5.10
2018-11-01T06:29:41.674Z,5.10
2018-11-01T06:32:15.525Z,4.53
2018-11-01T06:34:53.886Z,5.87
2018-11-01T06:37:27.676Z,4.50
2018-11-01T06:40:01.528Z,5.07
2018-11-01T06:42:35.343Z,6.00
2018-11-01T06:45:09.495Z,6.17
2018-11-01T06:47:43.406Z,5.40
2018-11-01T06:50:17.247Z,4.70
2018-11-01T06:52:51.059Z,5.27
2018-11-01T06:55:24.938Z,5.97
2018-11-01T06:57:58.749Z,6.70
2018-11-01T07:00:32.691Z,5.30
2018-11-01T07:03:06.497Z,5.70
2018-11-01T07:05:40.430Z,5.60
2018-11-01T07:08:14.282Z,5.40
2018-11-01T07:10:48.141Z,6.50
2018-11-01T07:13:22.053Z,6.00
2018-11-01T07:15:55.986Z,6.20
2018-11-01T07:18:29.931Z,5.47
2018-11-01T07:21:03.798Z,5.90
2018-11-01T07:23:37.723Z,6.13
2018-11-01T07:26:11.688Z,5.60
2018-11-01T07:28:45.399Z,5.73
2018-11-01T07:31:19.231Z,5.50
2018-11-01T07:33:53.252Z,5.87
2018-11-01T07:36:27.121Z,5.83
2018-11-01T07:39:00.965Z,6.10
2018-11-01T07:41:34.910Z,5.93
2018-11-01T07:44:08.886Z,5.60
2018-11-01T07:46:42.698Z,5.83
2018-11-01T07:49:16.474Z,5.67
2018-11-01T07:51:50.306Z,6.17
2018-11-01T07:54:24.115Z,6.10
2018-11-01T07:56:58.081Z,5.53
2018-11-01T07:59:31.931Z,5.43
2018-11-01T08:02:06.151Z,5.67
2018-11-01T08:04:40.052Z,5.57
2018-11-01T08:07:14.235Z,6.00
2018-11-01T08:09:48.031Z,6.60
2018-11-01T08:12:21.881Z,5.87
2018-11-01T08:14:55.716Z,6.57
2018-11-01T08:17:29.644Z,5.90
2018-11-01T08:20:04.539Z,6.13
2018-11-01T08:22:38.318Z,6.13
2018-11-01T08:25:12.862Z,5.73
2018-11-01T08:27:46.758Z,6.87
2018-11-01T08:30:20.696Z,6.53
2018-11-01T08:32:54.519Z,6.63
2018-11-01T08:35:28.373Z,7.10
2018-11-01T08:38:02.324Z,6.67
2018-11-01T08:40:36.191Z,6.53
2018-11-01T08:43:10.059Z,6.60
2018-11-01T08:45:43.921Z,7.47
2018-11-01T08:48:17.793Z,7.43
2018-11-01T08:51:54.976Z,6.97
2018-11-01T08:54:28.814Z,6.57
2018-11-01T08:57:02.661Z,7.43
2018-11-01T08:59:36.537Z,7.20
2018-11-01T09:02:10.557Z,6.67
2018-11-01T09:04:44.387Z,7.17
2018-11-01T09:07:18.243Z,6.53
2018-11-01T09:09:52.126Z,6.60
2018-11-01T09:12:25.945Z,6.83
2018-11-01T09:14:59.828Z,6.93
2018-11-01T09:17:33.634Z,6.90
2018-11-01T09:20:08.388Z,7.13
2018-11-01T09:22:43.107Z,6.83
2018-11-01T09:25:16.981Z,6.83
2018-11-01T09:27:50.864Z,6.63
2018-11-01T09:30:24.804Z,7.80
2018-11-01T09:32:58.743Z,8.20
2018-11-01T09:35:32.550Z,7.70
2018-11-01T09:38:06.567Z,7.33
2018-11-01T09:40:40.457Z,7.40
2018-11-01T09:43:14.285Z,7.73
2018-11-01T09:45:48.173Z,8.20
2018-11-01T09:48:22.060Z,7.80
2018-11-01T09:50:55.914Z,7.13
2018-11-01T09:53:29.749Z,7.73
2018-11-01T09:56:03.676Z,7.23
2018-11-01T09:58:38.016Z,7.63
2018-11-01T10:01:12.093Z,7.90
2018-11-01T10:03:45.807Z,7.80
2018-11-01T10:06:19.868Z,7.70
2018-11-01T10:08:53.700Z,6.70
2018-11-01T10:11:27.564Z,8.07
2018-11-01T10:14:01.364Z,7.73
2018-11-01T10:16:35.654Z,8.03
2018-11-01T10:19:10.340Z,7.63
2018-11-01T10:21:44.184Z,7.87
2018-11-01T10:24:18.095Z,8.40
2018-11-01T10:26:52.009Z,7.20
2018-11-01T10:29:25.855Z,8.40
2018-11-01T10:32:00.060Z,8.23
2018-11-01T10:34:33.898Z,8.60
2018-11-01T10:37:07.772Z,8.05
2018-11-01T10:39:41.636Z,7.90
2018-11-01T10:42:15.611Z,8.43
2018-11-01T10:44:49.503Z,8.63
2018-11-01T10:47:23.454Z,7.23
2018-11-01T10:49:57.306Z,8.40
2018-11-01T10:52:31.239Z,8.07
2018-11-01T10:55:05.644Z,8.13
2018-11-01T10:57:39.505Z,7.47
2018-11-01T11:00:18.836Z,8.15
2018-11-01T11:02:52.936Z,8.38
2018-11-01T11:05:26.774Z,8.58
2018-11-01T11:08:00.752Z,8.23
2018-11-01T11:10:34.613Z,8.05
2018-11-01T11:13:08.473Z,8.07
2018-11-01T11:15:42.327Z,7.97
2018-11-01T11:18:16.212Z,7.70
2018-11-01T11:20:50.320Z,7.90
2018-11-01T11:23:23.959Z,7.95
2018-11-01T11:25:57.768Z,8.60
2018-11-01T11:28:31.713Z,7.83
2018-11-01T11:31:05.591Z,7.65
2018-11-01T11:33:39.710Z,8.25
2018-11-01T11:36:13.521Z,8.60
2018-11-01T11:38:47.450Z,7.95
2018-11-01T11:41:21.268Z,7.45
2018-11-01T11:43:55.127Z,7.60
2018-11-01T11:46:28.951Z,8.18
2018-11-01T11:49:03.180Z,8.23
2018-11-01T11:51:37.582Z,8.08
2018-11-01T11:54:11.535Z,8.30
2018-11-01T11:56:45.371Z,8.13
2018-11-01T11:59:19.249Z,7.53
2018-11-01T12:01:53.087Z,7.80
2018-11-01T12:04:26.937Z,8.75
2018-11-01T12:07:00.793Z,7.65
2018-11-01T12:09:34.633Z,8.73
2018-11-01T12:12:08.504Z,8.30
2018-11-01T12:14:42.354Z,8.10
2018-11-01T12:17:16.433Z,7.80
2018-11-01T12:19:50.415Z,8.55
2018-11-01T12:22:24.349Z,8.28
2018-11-01T12:24:58.199Z,8.90
2018-11-01T12:27:32.010Z,8.25
2018-11-01T12:30:06.723Z,8.05
2018-11-01T12:32:40.560Z,8.55
2018-11-01T12:35:14.423Z,8.60
2018-11-01T12:37:48.249Z,8.55
2018-11-01T12:40:22.083Z,7.85
2018-11-01T12:42:55.909Z,8.08
2018-11-01T12:45:29.788Z,7.37
2018-11-01T12:48:03.620Z,7.45
2018-11-01T12:50:37.479Z,7.78
2018-11-01T12:53:11.295Z,8.68
2018-11-01T12:55:45.147Z,8.10
2018-11-01T12:58:18.983Z,7.95
2018-11-01T13:00:52.915Z,8.15
2018-11-01T13:03:26.829Z,9.23
2018-11-01T13:06:00.685Z,9.28
2018-11-01T13:08:34.554Z,9.08
2018-11-01T13:11:08.412Z,7.83
2018-11-01T13:13:42.226Z,7.50
2018-11-01T13:16:16.046Z,8.38
2018-11-01T13:18:49.911Z,8.43
2018-11-01T13:21:23.776Z,8.35
2018-11-01T13:23:57.608Z,8.75
2018-11-01T13:26:31.454Z,8.45
2018-11-01T13:29:05.811Z,8.40
2018-11-01T13:31:39.666Z,8.90
2018-11-01T13:34:13.533Z,9.23
2018-11-01T13:36:47.344Z,8.95
2018-11-01T13:39:21.205Z,9.00
2018-11-01T13:41:54.994Z,9.13
2018-11-01T13:44:28.930Z,9.30
2018-11-01T13:47:02.796Z,9.13
2018-11-01T13:49:36.646Z,9.23
2018-11-01T13:52:10.513Z,9.45
2018-11-01T13:54:44.516Z,8.95
2018-11-01T13:57:18.660Z,9.28
2018-11-01T13:59:52.489Z,9.08
2018-11-01T14:02:26.331Z,8.53
2018-11-01T14:05:00.304Z,9.05
2018-11-01T14:07:34.126Z,8.68
2018-11-01T14:10:10.218Z,9.00
2018-11-01T14:12:44.158Z,9.90
2018-11-01T14:15:18.793Z,9.55
2018-11-01T14:17:52.212Z,9.50
2018-11-01T14:20:26.243Z,9.10
2018-11-01T14:23:00.062Z,9.53
2018-11-01T14:25:33.982Z,9.13
2018-11-01T14:28:07.799Z,8.88
2018-11-01T14:30:41.750Z,9.03
2018-11-01T14:33:15.567Z,8.47
2018-11-01T14:35:49.553Z,9.50
2018-11-01T14:38:23.431Z,9.43
2018-11-01T14:40:57.279Z,9.73
2018-11-01T14:43:31.114Z,10.70
2018-11-01T14:46:04.976Z,9.90
2018-11-01T14:48:38.831Z,10.50
2018-11-01T14:51:12.765Z,9.50
2018-11-01T14:53:46.697Z,9.33
2018-11-01T14:56:22.116Z,9.40
2018-11-01T14:58:56.208Z,10.17
2018-11-01T15:01:28.838Z,9.37
2018-11-01T15:04:02.660Z,9.27
2018-11-01T15:06:36.610Z,9.67
2018-11-01T15:09:11.820Z,9.87
2018-11-01T15:11:45.663Z,8.63
2018-11-01T15:14:19.508Z,9.53
2018-11-01T15:16:53.403Z,9.13
2018-11-01T15:19:27.270Z,10.20
2018-11-01T15:22:01.689Z,10.43
2018-11-01T15:24:35.587Z,11.20
2018-11-01T15:27:09.523Z,10.80
2018-11-01T15:29:43.394Z,9.47
2018-11-01T15:32:22.504Z,11.03
2018-11-01T15:34:56.576Z,10.70
2018-11-01T15:37:30.572Z,10.03
2018-11-01T15:40:04.529Z,10.37
2018-11-01T15:42:38.597Z,10.87
2018-11-01T15:45:15.149Z,12.30
2018-11-01T15:47:50.279Z,11.60
2018-11-01T15:50:25.512Z,11.73
2018-11-01T15:53:00.632Z,10.97
2018-11-01T15:55:35.431Z,11.13
2018-11-01T15:58:10.377Z,11.43
2018-11-01T16:00:45.495Z,11.30
2018-11-01T16:03:21.241Z,11.03
2018-11-01T16:05:57.285Z,11.90
2018-11-01T16:08:32.323Z,11.63
2018-11-01T16:11:08.226Z,11.13
2018-11-01T16:13:43.739Z,12.20
2018-11-01T16:16:18.897Z,11.23
2018-11-01T16:18:54.719Z,12.20
2018-11-01T16:21:30.818Z,12.50
2018-11-01T16:24:06.505Z,12.10
2018-11-01T16:26:41.691Z,11.50
2018-11-01T16:29:16.725Z,12.13
2018-11-01T16:31:51.975Z,11.33
2018-11-01T16:34:27.722Z,11.23
2018-11-01T16:37:03.606Z,11.03
2018-11-01T16:39:39.708Z,11.27
2018-11-01T16:42:15.923Z,10.97
2018-11-01T16:44:52.667Z,12.20
2018-11-01T16:47:29.286Z,12.17
2018-11-01T16:50:04.951Z,12.57
2018-11-01T16:52:41.206Z,11.57
2018-11-01T16:55:16.415Z,11.50
2018-11-01T16:57:51.463Z,11.33
2018-11-01T17:00:27.187Z,11.90
2018-11-01T17:03:02.620Z,11.83
2018-11-01T17:05:37.733Z,13.17
2018-11-01T17:08:12.670Z,11.97
2018-11-01T17:10:47.856Z,11.93
2018-11-01T17:13:22.958Z,13.00
2018-11-01T17:15:58.974Z,13.97
2018-11-01T17:18:34.500Z,12.67
2018-11-01T17:21:09.344Z,11.93
2018-11-01T17:23:44.406Z,12.57
2018-11-01T17:26:20.455Z,12.27
2018-11-01T17:28:56.086Z,12.60
2018-11-01T17:31:31.373Z,12.03
2018-11-01T17:34:06.905Z,13.07
2018-11-01T17:36:42.335Z,12.67
2018-11-01T17:39:17.546Z,12.40
2018-11-01T17:41:52.902Z,12.63
2018-11-01T17:44:27.926Z,12.70
2018-11-01T17:47:03.778Z,11.80
2018-11-01T17:49:39.833Z,12.77
2018-11-01T17:52:14.709Z,11.77
2018-11-01T17:54:49.400Z,12.10
2018-11-01T17:57:24.741Z,12.37
2018-11-01T17:59:59.897Z,12.50
2018-11-01T18:02:34.648Z,13.03
2018-11-01T18:05:09.184Z,11.93
2018-11-01T18:07:43.124Z,11.40
2018-11-01T18:10:17.002Z,12.80
2018-11-01T18:12:50.848Z,11.90
2018-11-01T18:15:24.721Z,12.20
2018-11-01T18:17:59.085Z,12.53
2018-11-01T18:20:33.141Z,12.30
2018-11-01T18:23:07.139Z,12.07
2018-11-01T18:25:46.357Z,12.63
2018-11-01T18:28:20.872Z,12.43
2018-11-01T18:30:54.967Z,12.07
2018-11-01T18:33:28.876Z,11.83
2018-11-01T18:36:03.068Z,11.37
2018-11-01T18:38:36.956Z,11.60
2018-11-01T18:41:10.989Z,10.53
2018-11-01T18:43:44.870Z,12.03
2018-11-01T18:46:18.809Z,12.57
2018-11-01T18:48:52.744Z,13.00
2018-11-01T18:51:26.859Z,13.53
2018-11-01T18:54:01.767Z,12.93
2018-11-01T18:56:35.675Z,15.23
2018-11-01T18:59:09.877Z,13.60
2018-11-01T19:01:43.779Z,14.57
2018-11-01T19:04:17.623Z,13.43
2018-11-01T19:06:51.888Z,14.37
2018-11-01T19:09:25.821Z,14.33
2018-11-01T19:11:59.735Z,15.37
2018-11-01T19:14:33.690Z,14.30
2018-11-01T19:17:07.648Z,13.63
2018-11-01T19:19:41.600Z,13.20
2018-11-01T19:22:17.566Z,13.27
2018-11-01T19:24:53.700Z,12.97
2018-11-01T19:27:27.848Z,12.73
2018-11-01T19:30:02.920Z,14.10
2018-11-01T19:32:36.930Z,13.63
2018-11-01T19:35:12.057Z,12.13
2018-11-01T19:37:46.069Z,12.50
2018-11-01T19:40:19.980Z,12.27
2018-11-01T19:42:54.712Z,13.27
2018-11-01T19:45:28.759Z,13.60
2018-11-01T19:48:02.743Z,12.57
2018-11-01T19:50:36.576Z,12.67
2018-11-01T19:53:10.477Z,12.20
2018-11-01T19:55:44.395Z,12.43
2018-11-01T19:58:18.315Z,12.00
2018-11-01T20:00:52.321Z,11.63
2018-11-01T20:03:30.419Z,11.60
2018-11-01T20:06:04.688Z,11.23
2018-11-01T20:08:38.983Z,11.70
2018-11-01T20:11:14.105Z,11.97
2018-11-01T20:13:48.249Z,11.57
2018-11-01T20:16:22.430Z,12.20
2018-11-01T20:18:56.982Z,11.53
2018-11-01T20:21:30.870Z,11.77
2018-11-01T20:24:05.108Z,12.43
2018-11-01T20:26:39.028Z,12.63
2018-11-01T20:29:12.930Z,12.60
2018-11-01T20:31:46.844Z,11.20
2018-11-01T20:34:20.790Z,11.40
2018-11-01T20:36:54.677Z,11.03
2018-11-01T20:39:28.562Z,12.20
2018-11-01T20:42:02.435Z,12.00
2018-11-01T20:44:36.452Z,11.30
2018-11-01T20:47:10.346Z,12.07
2018-11-01T20:49:44.301Z,11.63
2018-11-01T20:52:18.187Z,10.43
2018-11-01T20:54:52.103Z,11.37
2018-11-01T20:57:26.236Z,11.17
2018-11-01T20:59:59.941Z,11.20
2018-11-01T21:02:33.907Z,11.60
2018-11-01T21:05:07.971Z,10.77
2018-11-01T21:07:41.835Z,10.90
2018-11-01T21:10:15.783Z,12.27
2018-11-01T21:12:49.666Z,16.30
2018-11-01T21:15:23.549Z,12.83
2018-11-01T21:17:57.464Z,11.07
2018-11-01T21:20:31.355Z,14.50
2018-11-01T21:23:05.725Z,11.50
2018-11-01T21:25:39.651Z,11.60
2018-11-01T21:28:13.523Z,11.40
2018-11-01T21:30:47.433Z,11.43
2018-11-01T21:33:21.294Z,13.80
2018-11-01T21:35:55.323Z,13.03
2018-11-01T21:38:29.085Z,16.27
2018-11-01T21:41:02.940Z,14.37
2018-11-01T21:43:36.811Z,13.27
2018-11-01T21:46:10.698Z,12.37
2018-11-01T21:48:44.695Z,15.17
2018-11-01T21:51:18.601Z,12.23
2018-11-01T21:53:52.482Z,12.37
2018-11-01T21:56:26.418Z,14.97
2018-11-01T21:59:00.276Z,13.13
2018-11-01T22:01:34.190Z,12.40
2018-11-01T22:04:08.035Z,13.20
2018-11-01T22:06:43.280Z,11.40
2018-11-01T22:09:18.040Z,14.67
2018-11-01T22:11:52.082Z,12.80
2018-11-01T22:14:25.917Z,11.40
2018-11-01T22:16:59.881Z,11.83
2018-11-01T22:19:33.782Z,14.97
2018-11-01T22:22:07.771Z,11.10
2018-11-01T22:24:41.850Z,10.80
2018-11-01T22:27:15.820Z,11.57
2018-11-01T22:29:49.684Z,11.03
2018-11-01T22:32:23.613Z,11.80
2018-11-01T22:34:57.827Z,11.00
2018-11-01T22:37:31.972Z,13.33
2018-11-01T22:40:06.037Z,9.93
2018-11-01T22:42:40.031Z,10.73
2018-11-01T22:45:13.876Z,11.70
2018-11-01T22:47:47.769Z,11.30
2018-11-01T22:50:21.657Z,11.43
2018-11-01T22:52:55.608Z,10.73
2018-11-01T22:55:29.493Z,9.93
2018-11-01T22:58:03.485Z,10.77
2018-11-01T23:00:41.582Z,17.83
2018-11-01T23:03:15.486Z,13.43
2018-11-01T23:05:49.350Z,9.67
2018-11-01T23:08:23.297Z,10.20
2018-11-01T23:10:57.161Z,11.00
2018-11-01T23:13:30.998Z,12.23
2018-11-01T23:16:05.104Z,12.00
2018-11-01T23:18:39.065Z,10.00
2018-11-01T23:21:12.998Z,9.37
2018-11-01T23:23:46.897Z,10.97
2018-11-01T23:26:20.856Z,11.50
2018-11-01T23:28:54.690Z,10.20
2018-11-01T23:31:28.612Z,10.67
2018-11-01T23:34:02.587Z,12.33
2018-11-01T23:36:41.581Z,9.40
2018-11-01T23:39:20.577Z,10.33
2018-11-01T23:41:59.561Z,9.77
2018-11-01T23:44:38.564Z,10.57
2018-11-01T23:47:17.522Z,12.50
2018-11-01T23:50:13.733Z,9.90
2018-11-01T23:52:49.546Z,11.80
2018-11-01T23:55:23.444Z,8.60
2018-11-01T23:57:57.285Z,10.90
